sensor_id;sensor_type;location;lat;lon;timestamp;temperature;humidity
47482;DHT22;33219;47.410;9.730;2023-08-06T00:01:30;13.30;99.90
47482;DHT22;33219;47.410;9.730;2023-08-06T00:03:58;13.40;99.90
47482;DHT22;33219;47.410;9.730;2023-08-06T00:06:26;13.40;99.90
47482;DHT22;33219;47.410;9.730;2023-08-06T00:08:56;13.40;99.90
47482;DHT22;33219;47.410;9.730;2023-08-06T00:11:23;13.40;99.90
47482;DHT22;33219;47.410;9.730;2023-08-06T00:13:51;13.40;99.90
47482;DHT22;33219;47.410;9.730;2023-08-06T00:16:18;13.50;99.90
47482;DHT22;33219;47.410;9.730;2023-08-06T00:18:47;13.50;99.90
47482;DHT22;33219;47.410;9.730;2023-08-06T00:21:14;13.40;99.90
47482;DHT22;33219;47.410;9.730;2023-08-06T00:23:42;13.40;99.90
47482;DHT22;33219;47.410;9.730;2023-08-06T00:26:10;13.40;99.90
47482;DHT22;33219;47.410;9.730;2023-08-06T00:28:37;13.50;99.90
47482;DHT22;33219;47.410;9.730;2023-08-06T00:31:05;13.40;99.90
47482;DHT22;33219;47.410;9.730;2023-08-06T00:33:32;13.50;99.90
47482;DHT22;33219;47.410;9.730;2023-08-06T00:36:00;13.50;99.90
47482;DHT22;33219;47.410;9.730;2023-08-06T00:38:27;13.50;99.90
47482;DHT22;33219;47.410;9.730;2023-08-06T00:40:56;13.50;99.90
47482;DHT22;33219;47.410;9.730;2023-08-06T00:43:23;13.50;99.90
47482;DHT22;33219;47.410;9.730;2023-08-06T00:45:51;13.50;99.90
47482;DHT22;33219;47.410;9.730;2023-08-06T00:48:19;13.50;99.90
47482;DHT22;33219;47.410;9.730;2023-08-06T00:50:47;13.50;99.90
47482;DHT22;33219;47.410;9.730;2023-08-06T00:53:16;13.40;99.90
47482;DHT22;33219;47.410;9.730;2023-08-06T00:55:45;13.50;99.90
47482;DHT22;33219;47.410;9.730;2023-08-06T00:58:13;13.50;99.90
47482;DHT22;33219;47.410;9.730;2023-08-06T01:00:41;13.50;99.90
47482;DHT22;33219;47.410;9.730;2023-08-06T01:03:09;13.50;99.90
47482;DHT22;33219;47.410;9.730;2023-08-06T01:05:36;13.60;99.90
47482;DHT22;33219;47.410;9.730;2023-08-06T01:08:28;13.60;99.90
47482;DHT22;33219;47.410;9.730;2023-08-06T01:13:41;13.50;99.90
47482;DHT22;33219;47.410;9.730;2023-08-06T01:16:09;13.50;99.90
47482;DHT22;33219;47.410;9.730;2023-08-06T01:18:37;13.50;99.90
47482;DHT22;33219;47.410;9.730;2023-08-06T01:21:07;13.40;99.90
47482;DHT22;33219;47.410;9.730;2023-08-06T01:23:34;13.50;99.90
47482;DHT22;33219;47.410;9.730;2023-08-06T01:26:24;13.40;99.90
47482;DHT22;33219;47.410;9.730;2023-08-06T01:31:38;13.40;99.90
47482;DHT22;33219;47.410;9.730;2023-08-06T01:34:16;13.30;99.90
47482;DHT22;33219;47.410;9.730;2023-08-06T01:36:38;13.30;99.90
47482;DHT22;33219;47.410;9.730;2023-08-06T01:39:06;13.20;99.90
47482;DHT22;33219;47.410;9.730;2023-08-06T01:41:33;13.10;99.90
47482;DHT22;33219;47.410;9.730;2023-08-06T01:44:01;13.00;99.90
47482;DHT22;33219;47.410;9.730;2023-08-06T01:46:28;13.00;99.90
47482;DHT22;33219;47.410;9.730;2023-08-06T01:48:56;12.90;99.90
47482;DHT22;33219;47.410;9.730;2023-08-06T01:51:23;12.90;99.90
47482;DHT22;33219;47.410;9.730;2023-08-06T01:53:51;12.80;99.90
47482;DHT22;33219;47.410;9.730;2023-08-06T01:56:19;12.80;99.90
47482;DHT22;33219;47.410;9.730;2023-08-06T01:58:46;12.80;99.90
47482;DHT22;33219;47.410;9.730;2023-08-06T02:01:14;12.80;99.90
47482;DHT22;33219;47.410;9.730;2023-08-06T02:03:41;12.80;99.90
47482;DHT22;33219;47.410;9.730;2023-08-06T02:06:09;12.70;99.90
47482;DHT22;33219;47.410;9.730;2023-08-06T02:08:37;12.70;99.90
47482;DHT22;33219;47.410;9.730;2023-08-06T02:11:06;12.70;99.90
47482;DHT22;33219;47.410;9.730;2023-08-06T02:13:33;12.80;99.90
47482;DHT22;33219;47.410;9.730;2023-08-06T02:16:01;12.70;99.90
47482;DHT22;33219;47.410;9.730;2023-08-06T02:18:30;12.80;99.90
47482;DHT22;33219;47.410;9.730;2023-08-06T02:20:58;12.70;99.90
47482;DHT22;33219;47.410;9.730;2023-08-06T02:23:26;12.70;99.90
47482;DHT22;33219;47.410;9.730;2023-08-06T02:26:02;12.70;99.90
47482;DHT22;33219;47.410;9.730;2023-08-06T02:28:30;12.70;99.90
47482;DHT22;33219;47.410;9.730;2023-08-06T02:30:58;12.70;99.90
47482;DHT22;33219;47.410;9.730;2023-08-06T02:33:26;12.70;99.90
47482;DHT22;33219;47.410;9.730;2023-08-06T02:36:00;12.70;99.90
47482;DHT22;33219;47.410;9.730;2023-08-06T02:38:29;12.70;99.90
47482;DHT22;33219;47.410;9.730;2023-08-06T02:40:56;12.70;99.90
47482;DHT22;33219;47.410;9.730;2023-08-06T02:43:24;12.60;99.90
47482;DHT22;33219;47.410;9.730;2023-08-06T02:45:52;12.70;99.90
47482;DHT22;33219;47.410;9.730;2023-08-06T02:48:19;12.60;99.90
47482;DHT22;33219;47.410;9.730;2023-08-06T02:50:47;12.60;99.90
47482;DHT22;33219;47.410;9.730;2023-08-06T02:53:14;12.60;99.90
47482;DHT22;33219;47.410;9.730;2023-08-06T02:55:46;12.50;99.90
47482;DHT22;33219;47.410;9.730;2023-08-06T02:58:15;12.50;99.90
47482;DHT22;33219;47.410;9.730;2023-08-06T03:00:45;12.50;99.90
47482;DHT22;33219;47.410;9.730;2023-08-06T03:03:13;12.50;99.90
47482;DHT22;33219;47.410;9.730;2023-08-06T03:05:40;12.50;99.90
47482;DHT22;33219;47.410;9.730;2023-08-06T03:08:09;12.50;99.90
47482;DHT22;33219;47.410;9.730;2023-08-06T03:10:36;12.40;99.90
47482;DHT22;33219;47.410;9.730;2023-08-06T03:13:04;12.40;99.90
47482;DHT22;33219;47.410;9.730;2023-08-06T03:15:32;12.30;99.90
47482;DHT22;33219;47.410;9.730;2023-08-06T03:18:02;12.30;99.90
47482;DHT22;33219;47.410;9.730;2023-08-06T03:20:33;12.20;99.90
47482;DHT22;33219;47.410;9.730;2023-08-06T03:23:01;12.20;99.90
47482;DHT22;33219;47.410;9.730;2023-08-06T03:25:28;12.10;99.90
47482;DHT22;33219;47.410;9.730;2023-08-06T03:27:57;12.10;99.90
47482;DHT22;33219;47.410;9.730;2023-08-06T03:30:24;12.10;99.90
47482;DHT22;33219;47.410;9.730;2023-08-06T03:32:53;12.10;99.90
47482;DHT22;33219;47.410;9.730;2023-08-06T03:35:20;12.20;99.90
47482;DHT22;33219;47.410;9.730;2023-08-06T03:37:48;12.10;99.90
47482;DHT22;33219;47.410;9.730;2023-08-06T03:40:16;12.20;99.90
47482;DHT22;33219;47.410;9.730;2023-08-06T03:42:43;12.20;99.90
47482;DHT22;33219;47.410;9.730;2023-08-06T03:45:11;12.30;99.90
47482;DHT22;33219;47.410;9.730;2023-08-06T03:47:39;12.30;99.90
47482;DHT22;33219;47.410;9.730;2023-08-06T03:50:06;12.30;99.90
47482;DHT22;33219;47.410;9.730;2023-08-06T03:52:35;12.40;99.90
47482;DHT22;33219;47.410;9.730;2023-08-06T03:55:03;12.40;99.90
47482;DHT22;33219;47.410;9.730;2023-08-06T03:57:30;12.40;99.90
47482;DHT22;33219;47.410;9.730;2023-08-06T03:59:58;12.40;99.90
47482;DHT22;33219;47.410;9.730;2023-08-06T04:02:31;12.30;99.90
47482;DHT22;33219;47.410;9.730;2023-08-06T04:04:55;12.20;99.90
47482;DHT22;33219;47.410;9.730;2023-08-06T04:07:23;12.20;99.90
47482;DHT22;33219;47.410;9.730;2023-08-06T04:09:54;12.20;99.90
47482;DHT22;33219;47.410;9.730;2023-08-06T04:12:22;12.10;99.90
47482;DHT22;33219;47.410;9.730;2023-08-06T04:14:51;12.10;99.90
47482;DHT22;33219;47.410;9.730;2023-08-06T04:17:21;12.10;99.90
47482;DHT22;33219;47.410;9.730;2023-08-06T04:19:54;12.10;99.90
47482;DHT22;33219;47.410;9.730;2023-08-06T04:22:23;12.10;99.90
47482;DHT22;33219;47.410;9.730;2023-08-06T04:24:51;12.10;99.90
47482;DHT22;33219;47.410;9.730;2023-08-06T04:27:19;12.20;99.90
47482;DHT22;33219;47.410;9.730;2023-08-06T04:29:46;12.20;99.90
47482;DHT22;33219;47.410;9.730;2023-08-06T04:32:14;12.20;99.90
47482;DHT22;33219;47.410;9.730;2023-08-06T04:34:42;12.20;99.90
47482;DHT22;33219;47.410;9.730;2023-08-06T04:37:10;12.20;99.90
47482;DHT22;33219;47.410;9.730;2023-08-06T04:39:37;12.30;99.90
47482;DHT22;33219;47.410;9.730;2023-08-06T04:42:05;12.30;99.90
47482;DHT22;33219;47.410;9.730;2023-08-06T04:44:33;12.40;99.90
47482;DHT22;33219;47.410;9.730;2023-08-06T04:47:01;12.40;99.90
47482;DHT22;33219;47.410;9.730;2023-08-06T04:49:28;12.50;99.90
47482;DHT22;33219;47.410;9.730;2023-08-06T04:51:56;12.60;99.90
47482;DHT22;33219;47.410;9.730;2023-08-06T04:54:23;12.50;99.90
47482;DHT22;33219;47.410;9.730;2023-08-06T04:56:52;12.50;99.90
47482;DHT22;33219;47.410;9.730;2023-08-06T04:59:22;12.50;99.90
47482;DHT22;33219;47.410;9.730;2023-08-06T05:01:49;12.50;99.90
47482;DHT22;33219;47.410;9.730;2023-08-06T05:04:17;12.60;99.90
47482;DHT22;33219;47.410;9.730;2023-08-06T05:06:45;12.60;99.90
47482;DHT22;33219;47.410;9.730;2023-08-06T05:09:12;12.60;99.90
47482;DHT22;33219;47.410;9.730;2023-08-06T05:11:40;12.70;99.90
47482;DHT22;33219;47.410;9.730;2023-08-06T05:14:07;12.70;99.90
47482;DHT22;33219;47.410;9.730;2023-08-06T05:16:35;12.80;99.90
47482;DHT22;33219;47.410;9.730;2023-08-06T05:19:02;12.90;99.90
47482;DHT22;33219;47.410;9.730;2023-08-06T05:21:30;13.00;99.90
47482;DHT22;33219;47.410;9.730;2023-08-06T05:23:57;13.00;99.90
47482;DHT22;33219;47.410;9.730;2023-08-06T05:26:25;13.20;99.90
47482;DHT22;33219;47.410;9.730;2023-08-06T05:28:52;13.30;99.90
47482;DHT22;33219;47.410;9.730;2023-08-06T05:31:20;13.50;99.90
47482;DHT22;33219;47.410;9.730;2023-08-06T05:33:48;13.50;99.90
47482;DHT22;33219;47.410;9.730;2023-08-06T05:36:15;13.60;99.90
47482;DHT22;33219;47.410;9.730;2023-08-06T05:38:44;13.70;99.90
47482;DHT22;33219;47.410;9.730;2023-08-06T05:41:11;13.80;99.90
47482;DHT22;33219;47.410;9.730;2023-08-06T05:43:39;13.70;99.90
47482;DHT22;33219;47.410;9.730;2023-08-06T05:46:07;13.70;99.90
47482;DHT22;33219;47.410;9.730;2023-08-06T05:48:34;13.70;99.90
47482;DHT22;33219;47.410;9.730;2023-08-06T05:51:02;13.70;99.90
47482;DHT22;33219;47.410;9.730;2023-08-06T05:53:30;13.70;99.90
47482;DHT22;33219;47.410;9.730;2023-08-06T05:55:57;13.70;99.90
47482;DHT22;33219;47.410;9.730;2023-08-06T05:58:25;13.70;99.90
47482;DHT22;33219;47.410;9.730;2023-08-06T06:00:54;13.50;99.90
47482;DHT22;33219;47.410;9.730;2023-08-06T06:03:22;13.60;99.90
47482;DHT22;33219;47.410;9.730;2023-08-06T06:05:50;13.60;99.90
47482;DHT22;33219;47.410;9.730;2023-08-06T06:08:18;13.70;99.90
47482;DHT22;33219;47.410;9.730;2023-08-06T06:10:45;13.60;99.90
47482;DHT22;33219;47.410;9.730;2023-08-06T06:13:13;13.60;99.90
47482;DHT22;33219;47.410;9.730;2023-08-06T06:15:41;13.50;99.90
47482;DHT22;33219;47.410;9.730;2023-08-06T06:18:08;13.40;99.90
47482;DHT22;33219;47.410;9.730;2023-08-06T06:20:36;13.30;99.90
47482;DHT22;33219;47.410;9.730;2023-08-06T06:23:03;13.20;99.90
47482;DHT22;33219;47.410;9.730;2023-08-06T06:25:31;13.20;99.90
47482;DHT22;33219;47.410;9.730;2023-08-06T06:27:59;13.20;99.90
47482;DHT22;33219;47.410;9.730;2023-08-06T06:30:26;13.10;99.90
47482;DHT22;33219;47.410;9.730;2023-08-06T06:32:54;13.00;99.90
47482;DHT22;33219;47.410;9.730;2023-08-06T06:35:21;13.00;99.90
47482;DHT22;33219;47.410;9.730;2023-08-06T06:37:49;13.00;99.90
47482;DHT22;33219;47.410;9.730;2023-08-06T06:40:16;13.00;99.90
47482;DHT22;33219;47.410;9.730;2023-08-06T06:42:44;13.00;99.90
47482;DHT22;33219;47.410;9.730;2023-08-06T06:45:12;13.00;99.90
47482;DHT22;33219;47.410;9.730;2023-08-06T06:47:39;13.00;99.90
47482;DHT22;33219;47.410;9.730;2023-08-06T06:50:07;13.00;99.90
47482;DHT22;33219;47.410;9.730;2023-08-06T06:52:35;13.00;99.90
47482;DHT22;33219;47.410;9.730;2023-08-06T06:55:02;13.10;99.90
47482;DHT22;33219;47.410;9.730;2023-08-06T06:57:30;13.00;99.90
47482;DHT22;33219;47.410;9.730;2023-08-06T06:59:58;13.00;99.90
47482;DHT22;33219;47.410;9.730;2023-08-06T07:02:25;13.00;99.90
47482;DHT22;33219;47.410;9.730;2023-08-06T07:04:54;12.90;99.90
47482;DHT22;33219;47.410;9.730;2023-08-06T07:07:22;12.90;99.90
47482;DHT22;33219;47.410;9.730;2023-08-06T07:09:50;12.80;99.90
47482;DHT22;33219;47.410;9.730;2023-08-06T07:12:18;12.90;99.90
47482;DHT22;33219;47.410;9.730;2023-08-06T07:14:48;12.90;99.90
47482;DHT22;33219;47.410;9.730;2023-08-06T07:17:23;12.90;99.90
47482;DHT22;33219;47.410;9.730;2023-08-06T07:19:50;12.90;99.90
47482;DHT22;33219;47.410;9.730;2023-08-06T07:22:18;13.00;99.90
47482;DHT22;33219;47.410;9.730;2023-08-06T07:24:45;13.10;99.90
47482;DHT22;33219;47.410;9.730;2023-08-06T07:27:13;13.20;99.90
47482;DHT22;33219;47.410;9.730;2023-08-06T07:29:40;13.30;99.90
47482;DHT22;33219;47.410;9.730;2023-08-06T07:32:08;13.40;99.90
47482;DHT22;33219;47.410;9.730;2023-08-06T07:34:35;13.50;99.90
47482;DHT22;33219;47.410;9.730;2023-08-06T07:37:03;13.70;99.90
47482;DHT22;33219;47.410;9.730;2023-08-06T07:39:31;13.80;99.90
47482;DHT22;33219;47.410;9.730;2023-08-06T07:41:58;13.80;99.90
47482;DHT22;33219;47.410;9.730;2023-08-06T07:44:26;14.00;99.90
47482;DHT22;33219;47.410;9.730;2023-08-06T07:46:54;14.30;99.90
47482;DHT22;33219;47.410;9.730;2023-08-06T07:49:22;14.40;99.90
47482;DHT22;33219;47.410;9.730;2023-08-06T07:51:50;14.40;99.90
47482;DHT22;33219;47.410;9.730;2023-08-06T07:54:30;14.40;99.90
47482;DHT22;33219;47.410;9.730;2023-08-06T07:56:57;14.60;99.90
47482;DHT22;33219;47.410;9.730;2023-08-06T07:59:25;14.70;99.90
47482;DHT22;33219;47.410;9.730;2023-08-06T08:01:52;15.00;99.90
47482;DHT22;33219;47.410;9.730;2023-08-06T08:04:23;15.30;99.90
47482;DHT22;33219;47.410;9.730;2023-08-06T08:06:51;15.50;99.90
47482;DHT22;33219;47.410;9.730;2023-08-06T08:09:18;15.70;99.90
47482;DHT22;33219;47.410;9.730;2023-08-06T08:11:46;15.90;99.90
47482;DHT22;33219;47.410;9.730;2023-08-06T08:14:13;16.00;99.90
47482;DHT22;33219;47.410;9.730;2023-08-06T08:16:41;16.20;99.90
47482;DHT22;33219;47.410;9.730;2023-08-06T08:19:12;16.30;99.90
47482;DHT22;33219;47.410;9.730;2023-08-06T08:21:38;16.40;99.90
47482;DHT22;33219;47.410;9.730;2023-08-06T08:24:06;16.60;99.90
47482;DHT22;33219;47.410;9.730;2023-08-06T08:26:33;16.60;99.90
47482;DHT22;33219;47.410;9.730;2023-08-06T08:29:02;16.50;99.90
47482;DHT22;33219;47.410;9.730;2023-08-06T08:31:30;16.50;99.90
47482;DHT22;33219;47.410;9.730;2023-08-06T08:34:00;16.30;99.90
47482;DHT22;33219;47.410;9.730;2023-08-06T08:36:29;16.10;99.90
47482;DHT22;33219;47.410;9.730;2023-08-06T08:38:57;16.00;99.90
47482;DHT22;33219;47.410;9.730;2023-08-06T08:41:25;16.00;99.90
47482;DHT22;33219;47.410;9.730;2023-08-06T08:43:54;15.90;99.90
47482;DHT22;33219;47.410;9.730;2023-08-06T08:46:24;15.80;99.90
47482;DHT22;33219;47.410;9.730;2023-08-06T08:48:54;15.70;99.90
47482;DHT22;33219;47.410;9.730;2023-08-06T08:51:22;15.60;99.90
47482;DHT22;33219;47.410;9.730;2023-08-06T08:53:51;15.60;99.90
47482;DHT22;33219;47.410;9.730;2023-08-06T08:56:21;15.40;99.90
47482;DHT22;33219;47.410;9.730;2023-08-06T08:58:49;15.30;99.90
47482;DHT22;33219;47.410;9.730;2023-08-06T09:01:19;15.40;99.90
47482;DHT22;33219;47.410;9.730;2023-08-06T09:03:48;15.40;99.90
47482;DHT22;33219;47.410;9.730;2023-08-06T09:06:17;15.40;99.90
47482;DHT22;33219;47.410;9.730;2023-08-06T09:08:52;15.40;99.90
47482;DHT22;33219;47.410;9.730;2023-08-06T09:11:20;15.40;99.90
47482;DHT22;33219;47.410;9.730;2023-08-06T09:13:48;15.40;99.90
47482;DHT22;33219;47.410;9.730;2023-08-06T09:16:16;15.40;99.90
47482;DHT22;33219;47.410;9.730;2023-08-06T09:18:44;15.50;99.90
47482;DHT22;33219;47.410;9.730;2023-08-06T09:21:15;15.60;99.90
47482;DHT22;33219;47.410;9.730;2023-08-06T09:23:45;15.50;99.90
47482;DHT22;33219;47.410;9.730;2023-08-06T09:26:13;15.50;99.90
47482;DHT22;33219;47.410;9.730;2023-08-06T09:28:40;15.50;99.90
47482;DHT22;33219;47.410;9.730;2023-08-06T09:31:09;15.50;99.90
47482;DHT22;33219;47.410;9.730;2023-08-06T09:33:37;15.50;99.90
47482;DHT22;33219;47.410;9.730;2023-08-06T09:36:11;15.70;99.90
47482;DHT22;33219;47.410;9.730;2023-08-06T09:38:40;15.80;99.90
47482;DHT22;33219;47.410;9.730;2023-08-06T09:41:09;15.70;99.90
47482;DHT22;33219;47.410;9.730;2023-08-06T09:43:43;15.70;99.90
47482;DHT22;33219;47.410;9.730;2023-08-06T09:46:15;15.70;99.90
47482;DHT22;33219;47.410;9.730;2023-08-06T09:48:50;15.40;99.90
47482;DHT22;33219;47.410;9.730;2023-08-06T09:51:18;15.30;99.90
47482;DHT22;33219;47.410;9.730;2023-08-06T09:53:47;15.00;99.90
47482;DHT22;33219;47.410;9.730;2023-08-06T09:56:17;14.70;99.90
47482;DHT22;33219;47.410;9.730;2023-08-06T09:58:47;14.50;99.90
47482;DHT22;33219;47.410;9.730;2023-08-06T10:01:17;14.30;99.90
47482;DHT22;33219;47.410;9.730;2023-08-06T10:03:45;14.10;99.90
47482;DHT22;33219;47.410;9.730;2023-08-06T10:06:13;13.90;99.90
47482;DHT22;33219;47.410;9.730;2023-08-06T10:08:41;13.70;99.90
47482;DHT22;33219;47.410;9.730;2023-08-06T10:11:09;13.70;99.90
47482;DHT22;33219;47.410;9.730;2023-08-06T10:13:38;13.70;99.90
47482;DHT22;33219;47.410;9.730;2023-08-06T10:16:06;13.70;99.90
47482;DHT22;33219;47.410;9.730;2023-08-06T10:18:38;13.60;99.90
47482;DHT22;33219;47.410;9.730;2023-08-06T10:21:08;13.70;99.90
47482;DHT22;33219;47.410;9.730;2023-08-06T10:23:36;13.80;99.90
47482;DHT22;33219;47.410;9.730;2023-08-06T10:26:05;13.80;99.90
47482;DHT22;33219;47.410;9.730;2023-08-06T10:28:37;14.00;99.90
47482;DHT22;33219;47.410;9.730;2023-08-06T10:31:05;14.10;99.90
47482;DHT22;33219;47.410;9.730;2023-08-06T10:33:44;14.20;99.90
47482;DHT22;33219;47.410;9.730;2023-08-06T10:36:12;14.40;99.90
47482;DHT22;33219;47.410;9.730;2023-08-06T10:38:47;14.60;99.90
47482;DHT22;33219;47.410;9.730;2023-08-06T10:41:23;14.60;99.90
47482;DHT22;33219;47.410;9.730;2023-08-06T10:43:52;14.60;99.90
47482;DHT22;33219;47.410;9.730;2023-08-06T10:46:26;14.70;99.90
47482;DHT22;33219;47.410;9.730;2023-08-06T10:48:52;14.80;99.90
47482;DHT22;33219;47.410;9.730;2023-08-06T10:51:20;14.80;99.90
47482;DHT22;33219;47.410;9.730;2023-08-06T10:53:49;14.90;99.90
47482;DHT22;33219;47.410;9.730;2023-08-06T10:56:21;15.00;99.90
47482;DHT22;33219;47.410;9.730;2023-08-06T10:58:49;14.90;99.90
47482;DHT22;33219;47.410;9.730;2023-08-06T11:01:17;14.90;99.90
47482;DHT22;33219;47.410;9.730;2023-08-06T11:03:46;14.90;99.90
47482;DHT22;33219;47.410;9.730;2023-08-06T11:06:19;15.00;99.90
47482;DHT22;33219;47.410;9.730;2023-08-06T11:08:54;15.10;99.90
47482;DHT22;33219;47.410;9.730;2023-08-06T11:11:18;15.10;99.90
47482;DHT22;33219;47.410;9.730;2023-08-06T11:13:48;15.00;99.90
47482;DHT22;33219;47.410;9.730;2023-08-06T11:16:23;15.10;99.90
47482;DHT22;33219;47.410;9.730;2023-08-06T11:18:54;15.10;99.90
47482;DHT22;33219;47.410;9.730;2023-08-06T11:21:23;15.10;99.90
47482;DHT22;33219;47.410;9.730;2023-08-06T11:23:52;15.00;99.90
47482;DHT22;33219;47.410;9.730;2023-08-06T11:26:20;15.10;99.90
47482;DHT22;33219;47.410;9.730;2023-08-06T11:28:50;15.10;99.90
47482;DHT22;33219;47.410;9.730;2023-08-06T11:31:21;15.00;99.90
47482;DHT22;33219;47.410;9.730;2023-08-06T11:33:55;15.20;99.90
47482;DHT22;33219;47.410;9.730;2023-08-06T11:36:33;15.10;99.90
47482;DHT22;33219;47.410;9.730;2023-08-06T11:39:01;15.10;99.90
47482;DHT22;33219;47.410;9.730;2023-08-06T11:41:30;15.20;99.90
47482;DHT22;33219;47.410;9.730;2023-08-06T11:43:59;15.20;99.90
47482;DHT22;33219;47.410;9.730;2023-08-06T11:46:26;15.30;99.90
47482;DHT22;33219;47.410;9.730;2023-08-06T11:48:56;15.10;99.90
47482;DHT22;33219;47.410;9.730;2023-08-06T11:51:25;15.10;99.90
47482;DHT22;33219;47.410;9.730;2023-08-06T11:53:59;15.00;99.90
47482;DHT22;33219;47.410;9.730;2023-08-06T11:56:27;14.90;99.90
47482;DHT22;33219;47.410;9.730;2023-08-06T11:58:55;14.80;99.90
47482;DHT22;33219;47.410;9.730;2023-08-06T12:01:22;14.70;99.90
47482;DHT22;33219;47.410;9.730;2023-08-06T12:03:51;14.60;99.90
47482;DHT22;33219;47.410;9.730;2023-08-06T12:06:18;14.60;99.90
47482;DHT22;33219;47.410;9.730;2023-08-06T12:08:46;14.40;99.90
47482;DHT22;33219;47.410;9.730;2023-08-06T12:11:14;14.30;99.90
47482;DHT22;33219;47.410;9.730;2023-08-06T12:13:42;14.30;99.90
47482;DHT22;33219;47.410;9.730;2023-08-06T12:16:10;14.30;99.90
47482;DHT22;33219;47.410;9.730;2023-08-06T12:18:37;14.30;99.90
47482;DHT22;33219;47.410;9.730;2023-08-06T12:21:05;14.40;99.90
47482;DHT22;33219;47.410;9.730;2023-08-06T12:23:32;14.50;99.90
47482;DHT22;33219;47.410;9.730;2023-08-06T12:26:00;14.50;99.90
47482;DHT22;33219;47.410;9.730;2023-08-06T12:28:27;14.40;99.90
47482;DHT22;33219;47.410;9.730;2023-08-06T12:30:55;14.40;99.90
47482;DHT22;33219;47.410;9.730;2023-08-06T12:33:23;14.40;99.90
47482;DHT22;33219;47.410;9.730;2023-08-06T12:35:50;14.40;99.90
47482;DHT22;33219;47.410;9.730;2023-08-06T12:38:19;14.50;99.90
47482;DHT22;33219;47.410;9.730;2023-08-06T12:40:47;14.50;99.90
47482;DHT22;33219;47.410;9.730;2023-08-06T12:43:15;14.50;99.90
47482;DHT22;33219;47.410;9.730;2023-08-06T12:45:43;14.60;99.90
47482;DHT22;33219;47.410;9.730;2023-08-06T12:48:11;14.60;99.90
47482;DHT22;33219;47.410;9.730;2023-08-06T12:50:38;14.60;99.90
47482;DHT22;33219;47.410;9.730;2023-08-06T12:53:06;14.70;99.90
47482;DHT22;33219;47.410;9.730;2023-08-06T12:55:33;14.80;99.90
47482;DHT22;33219;47.410;9.730;2023-08-06T12:58:03;14.90;99.90
47482;DHT22;33219;47.410;9.730;2023-08-06T13:00:34;14.90;99.90
47482;DHT22;33219;47.410;9.730;2023-08-06T13:03:03;14.90;99.90
47482;DHT22;33219;47.410;9.730;2023-08-06T13:05:31;15.20;99.90
47482;DHT22;33219;47.410;9.730;2023-08-06T13:08:00;15.20;99.90
47482;DHT22;33219;47.410;9.730;2023-08-06T13:10:28;15.10;99.90
47482;DHT22;33219;47.410;9.730;2023-08-06T13:12:58;15.10;99.90
47482;DHT22;33219;47.410;9.730;2023-08-06T13:15:26;15.00;99.90
47482;DHT22;33219;47.410;9.730;2023-08-06T13:17:54;15.00;99.90
47482;DHT22;33219;47.410;9.730;2023-08-06T13:20:23;15.00;99.90
47482;DHT22;33219;47.410;9.730;2023-08-06T13:22:52;14.90;99.90
47482;DHT22;33219;47.410;9.730;2023-08-06T13:25:21;14.90;99.90
47482;DHT22;33219;47.410;9.730;2023-08-06T13:27:50;15.00;99.90
47482;DHT22;33219;47.410;9.730;2023-08-06T13:30:18;14.90;99.90
47482;DHT22;33219;47.410;9.730;2023-08-06T13:32:47;14.90;99.90
47482;DHT22;33219;47.410;9.730;2023-08-06T13:35:15;15.00;99.90
47482;DHT22;33219;47.410;9.730;2023-08-06T13:37:43;15.00;99.90
47482;DHT22;33219;47.410;9.730;2023-08-06T13:40:12;15.00;99.90
47482;DHT22;33219;47.410;9.730;2023-08-06T13:42:40;15.00;99.90
47482;DHT22;33219;47.410;9.730;2023-08-06T13:45:09;15.00;99.90
47482;DHT22;33219;47.410;9.730;2023-08-06T13:47:37;15.10;99.90
47482;DHT22;33219;47.410;9.730;2023-08-06T13:50:07;15.10;99.90
47482;DHT22;33219;47.410;9.730;2023-08-06T13:52:36;15.20;99.90
47482;DHT22;33219;47.410;9.730;2023-08-06T13:55:04;15.20;99.90
47482;DHT22;33219;47.410;9.730;2023-08-06T13:57:34;15.30;99.90
47482;DHT22;33219;47.410;9.730;2023-08-06T14:00:03;15.30;99.90
47482;DHT22;33219;47.410;9.730;2023-08-06T14:02:32;15.50;99.90
47482;DHT22;33219;47.410;9.730;2023-08-06T14:05:00;15.60;99.90
47482;DHT22;33219;47.410;9.730;2023-08-06T14:07:29;15.50;99.90
47482;DHT22;33219;47.410;9.730;2023-08-06T14:09:57;15.60;99.90
47482;DHT22;33219;47.410;9.730;2023-08-06T14:12:26;15.60;99.90
47482;DHT22;33219;47.410;9.730;2023-08-06T14:14:54;15.50;99.90
47482;DHT22;33219;47.410;9.730;2023-08-06T14:17:24;15.60;99.90
47482;DHT22;33219;47.410;9.730;2023-08-06T14:19:52;15.50;99.90
47482;DHT22;33219;47.410;9.730;2023-08-06T14:22:21;15.60;99.90
47482;DHT22;33219;47.410;9.730;2023-08-06T14:24:53;15.70;99.90
47482;DHT22;33219;47.410;9.730;2023-08-06T14:27:20;15.70;99.90
47482;DHT22;33219;47.410;9.730;2023-08-06T14:29:49;15.80;99.90
47482;DHT22;33219;47.410;9.730;2023-08-06T14:32:18;15.80;99.90
47482;DHT22;33219;47.410;9.730;2023-08-06T14:34:46;15.80;99.90
47482;DHT22;33219;47.410;9.730;2023-08-06T14:37:15;15.80;99.90
47482;DHT22;33219;47.410;9.730;2023-08-06T14:39:44;15.80;99.90
47482;DHT22;33219;47.410;9.730;2023-08-06T14:42:13;15.80;99.90
47482;DHT22;33219;47.410;9.730;2023-08-06T14:44:41;15.70;99.90
47482;DHT22;33219;47.410;9.730;2023-08-06T14:47:10;15.70;99.90
47482;DHT22;33219;47.410;9.730;2023-08-06T14:49:43;15.60;99.90
47482;DHT22;33219;47.410;9.730;2023-08-06T14:52:11;15.60;99.90
47482;DHT22;33219;47.410;9.730;2023-08-06T14:54:40;15.40;99.90
47482;DHT22;33219;47.410;9.730;2023-08-06T14:57:13;15.40;99.90
47482;DHT22;33219;47.410;9.730;2023-08-06T14:59:39;15.30;99.90
47482;DHT22;33219;47.410;9.730;2023-08-06T15:02:08;15.30;99.90
47482;DHT22;33219;47.410;9.730;2023-08-06T15:04:37;15.20;99.90
47482;DHT22;33219;47.410;9.730;2023-08-06T15:07:06;15.20;99.90
47482;DHT22;33219;47.410;9.730;2023-08-06T15:09:36;15.10;99.90
47482;DHT22;33219;47.410;9.730;2023-08-06T15:12:06;15.00;99.90
47482;DHT22;33219;47.410;9.730;2023-08-06T15:14:35;14.90;99.90
47482;DHT22;33219;47.410;9.730;2023-08-06T15:17:05;14.80;99.90
47482;DHT22;33219;47.410;9.730;2023-08-06T15:19:35;14.70;99.90
47482;DHT22;33219;47.410;9.730;2023-08-06T15:22:05;14.60;99.90
47482;DHT22;33219;47.410;9.730;2023-08-06T15:24:33;14.30;99.90
47482;DHT22;33219;47.410;9.730;2023-08-06T15:27:05;14.20;99.90
47482;DHT22;33219;47.410;9.730;2023-08-06T15:29:33;14.00;99.90
47482;DHT22;33219;47.410;9.730;2023-08-06T15:32:04;14.00;99.90
47482;DHT22;33219;47.410;9.730;2023-08-06T15:34:32;13.90;99.90
47482;DHT22;33219;47.410;9.730;2023-08-06T15:37:03;13.80;99.90
47482;DHT22;33219;47.410;9.730;2023-08-06T15:39:34;13.80;99.90
47482;DHT22;33219;47.410;9.730;2023-08-06T15:42:03;13.70;99.90
47482;DHT22;33219;47.410;9.730;2023-08-06T15:44:31;13.80;99.90